Aggieland, Texas
Current Conditions -  °F | °C
As of 9:53 PM on Thursday 18 Dec 2014 (Local Time) from KCLL Reporting Station
Haze Haze  
Wind Chill: 55°   Ceiling: 300
Heat Index: 55°   Visibility: 3mi
Dew Point: 54°   Wind: 12mph
Humidity: 96%   Direction: 20°NNE
Pressure: 30.09"   Gusts: NA
Location:  30.5943°N, 96.3574°W
Report Text: KCLL 190353Z 02010KT 3SM BR OVC003 13/12 A3009 RMK AO2 SLP186 T01280122
Loading
Personal Weather Stations






























Interactive Weather Map New forecast layout! Learn more

10-Day Weather Forecast

Advertisements
Track Severe Weather on mobile